sensor_id;sensor_type;location;lat;lon;timestamp;P1;durP1;ratioP1;P2;durP2;ratioP2
30048;SDS011;16879;50.852;15.602;2023-04-03T00:02:02;7.32;;;2.92;;
30048;SDS011;16879;50.852;15.602;2023-04-03T00:04:28;6.40;;;3.05;;
30048;SDS011;16879;50.852;15.602;2023-04-03T00:06:55;9.52;;;3.20;;
30048;SDS011;16879;50.852;15.602;2023-04-03T00:09:21;8.25;;;3.25;;
30048;SDS011;16879;50.852;15.602;2023-04-03T00:11:47;7.72;;;3.08;;
30048;SDS011;16879;50.852;15.602;2023-04-03T00:14:13;7.80;;;3.45;;
30048;SDS011;16879;50.852;15.602;2023-04-03T00:16:39;6.60;;;2.72;;
30048;SDS011;16879;50.852;15.602;2023-04-03T00:19:05;7.60;;;2.75;;
30048;SDS011;16879;50.852;15.602;2023-04-03T00:21:32;5.82;;;2.70;;
30048;SDS011;16879;50.852;15.602;2023-04-03T00:23:58;6.72;;;2.15;;
30048;SDS011;16879;50.852;15.602;2023-04-03T00:26:24;8.43;;;2.80;;
30048;SDS011;16879;50.852;15.602;2023-04-03T00:28:50;7.63;;;2.55;;
30048;SDS011;16879;50.852;15.602;2023-04-03T00:31:17;6.95;;;2.42;;
30048;SDS011;16879;50.852;15.602;2023-04-03T00:33:43;4.50;;;2.13;;
30048;SDS011;16879;50.852;15.602;2023-04-03T00:36:09;7.35;;;2.20;;
30048;SDS011;16879;50.852;15.602;2023-04-03T00:38:36;7.40;;;2.47;;
30048;SDS011;16879;50.852;15.602;2023-04-03T00:41:02;9.00;;;2.90;;
30048;SDS011;16879;50.852;15.602;2023-04-03T00:43:28;6.25;;;2.92;;
30048;SDS011;16879;50.852;15.602;2023-04-03T00:45:55;7.22;;;2.80;;
30048;SDS011;16879;50.852;15.602;2023-04-03T00:48:24;9.23;;;4.10;;
30048;SDS011;16879;50.852;15.602;2023-04-03T00:50:51;6.63;;;2.90;;
30048;SDS011;16879;50.852;15.602;2023-04-03T00:53:18;5.13;;;2.40;;
30048;SDS011;16879;50.852;15.602;2023-04-03T00:55:46;6.90;;;2.38;;
30048;SDS011;16879;50.852;15.602;2023-04-03T00:58:13;9.25;;;2.13;;
30048;SDS011;16879;50.852;15.602;2023-04-03T01:00:42;9.07;;;2.75;;
30048;SDS011;16879;50.852;15.602;2023-04-03T01:03:11;3.55;;;2.10;;
30048;SDS011;16879;50.852;15.602;2023-04-03T01:05:37;8.93;;;2.75;;
30048;SDS011;16879;50.852;15.602;2023-04-03T01:08:04;5.30;;;2.60;;
30048;SDS011;16879;50.852;15.602;2023-04-03T01:10:31;6.65;;;2.10;;
30048;SDS011;16879;50.852;15.602;2023-04-03T01:12:57;7.68;;;2.88;;
30048;SDS011;16879;50.852;15.602;2023-04-03T01:15:26;11.20;;;3.10;;
30048;SDS011;16879;50.852;15.602;2023-04-03T01:17:58;7.18;;;3.00;;
30048;SDS011;16879;50.852;15.602;2023-04-03T01:25:44;7.72;;;2.60;;
30048;SDS011;16879;50.852;15.602;2023-04-03T01:28:34;7.50;;;2.03;;
30048;SDS011;16879;50.852;15.602;2023-04-03T01:33:34;6.88;;;2.67;;
30048;SDS011;16879;50.852;15.602;2023-04-03T01:36:01;11.57;;;2.63;;
30048;SDS011;16879;50.852;15.602;2023-04-03T01:38:27;5.90;;;1.98;;
30048;SDS011;16879;50.852;15.602;2023-04-03T01:40:54;4.10;;;1.98;;
30048;SDS011;16879;50.852;15.602;2023-04-03T01:43:20;6.43;;;2.13;;
30048;SDS011;16879;50.852;15.602;2023-04-03T01:45:46;7.72;;;2.65;;
30048;SDS011;16879;50.852;15.602;2023-04-03T01:48:14;7.65;;;2.17;;
30048;SDS011;16879;50.852;15.602;2023-04-03T01:50:40;4.57;;;2.35;;
30048;SDS011;16879;50.852;15.602;2023-04-03T01:53:07;5.25;;;2.22;;
30048;SDS011;16879;50.852;15.602;2023-04-03T01:55:33;5.65;;;1.88;;
30048;SDS011;16879;50.852;15.602;2023-04-03T01:57:59;11.43;;;2.65;;
30048;SDS011;16879;50.852;15.602;2023-04-03T02:00:25;10.13;;;3.92;;
30048;SDS011;16879;50.852;15.602;2023-04-03T02:02:51;5.63;;;2.67;;
30048;SDS011;16879;50.852;15.602;2023-04-03T02:05:18;4.40;;;2.20;;
30048;SDS011;16879;50.852;15.602;2023-04-03T02:07:44;7.78;;;2.97;;
30048;SDS011;16879;50.852;15.602;2023-04-03T02:10:10;7.68;;;3.17;;
30048;SDS011;16879;50.852;15.602;2023-04-03T02:12:37;4.18;;;2.45;;
30048;SDS011;16879;50.852;15.602;2023-04-03T02:15:03;9.63;;;2.78;;
30048;SDS011;16879;50.852;15.602;2023-04-03T02:17:29;8.05;;;3.08;;
30048;SDS011;16879;50.852;15.602;2023-04-03T02:19:55;5.55;;;3.00;;
30048;SDS011;16879;50.852;15.602;2023-04-03T02:22:22;7.05;;;3.28;;
30048;SDS011;16879;50.852;15.602;2023-04-03T02:24:48;6.20;;;2.20;;
30048;SDS011;16879;50.852;15.602;2023-04-03T02:27:14;6.07;;;2.63;;
30048;SDS011;16879;50.852;15.602;2023-04-03T02:29:41;6.90;;;2.80;;
30048;SDS011;16879;50.852;15.602;2023-04-03T02:32:07;6.18;;;3.03;;
30048;SDS011;16879;50.852;15.602;2023-04-03T02:34:33;8.23;;;2.35;;
30048;SDS011;16879;50.852;15.602;2023-04-03T02:36:59;8.80;;;3.20;;
30048;SDS011;16879;50.852;15.602;2023-04-03T02:39:25;6.90;;;2.10;;
30048;SDS011;16879;50.852;15.602;2023-04-03T02:41:52;5.68;;;1.95;;
30048;SDS011;16879;50.852;15.602;2023-04-03T02:44:18;6.13;;;3.03;;
30048;SDS011;16879;50.852;15.602;2023-04-03T02:46:44;7.80;;;2.38;;
30048;SDS011;16879;50.852;15.602;2023-04-03T02:49:10;7.72;;;2.75;;
30048;SDS011;16879;50.852;15.602;2023-04-03T02:51:36;6.47;;;2.63;;
30048;SDS011;16879;50.852;15.602;2023-04-03T02:54:03;7.30;;;2.97;;
30048;SDS011;16879;50.852;15.602;2023-04-03T02:56:29;8.70;;;3.03;;
30048;SDS011;16879;50.852;15.602;2023-04-03T02:58:55;6.20;;;2.50;;
30048;SDS011;16879;50.852;15.602;2023-04-03T03:01:21;6.72;;;2.65;;
30048;SDS011;16879;50.852;15.602;2023-04-03T03:03:47;6.95;;;2.70;;
30048;SDS011;16879;50.852;15.602;2023-04-03T03:06:14;7.07;;;2.67;;
30048;SDS011;16879;50.852;15.602;2023-04-03T03:08:41;8.98;;;2.80;;
30048;SDS011;16879;50.852;15.602;2023-04-03T03:11:08;7.05;;;3.20;;
30048;SDS011;16879;50.852;15.602;2023-04-03T03:13:34;6.72;;;3.38;;
30048;SDS011;16879;50.852;15.602;2023-04-03T03:16:01;6.93;;;3.00;;
30048;SDS011;16879;50.852;15.602;2023-04-03T03:18:29;4.68;;;2.42;;
30048;SDS011;16879;50.852;15.602;2023-04-03T03:20:56;5.10;;;2.88;;
30048;SDS011;16879;50.852;15.602;2023-04-03T03:23:23;5.57;;;2.70;;
30048;SDS011;16879;50.852;15.602;2023-04-03T03:25:53;6.70;;;3.53;;
30048;SDS011;16879;50.852;15.602;2023-04-03T03:28:20;7.47;;;3.22;;
30048;SDS011;16879;50.852;15.602;2023-04-03T03:30:46;13.27;;;4.15;;
30048;SDS011;16879;50.852;15.602;2023-04-03T03:33:12;11.95;;;4.00;;
30048;SDS011;16879;50.852;15.602;2023-04-03T03:35:38;10.77;;;4.18;;
30048;SDS011;16879;50.852;15.602;2023-04-03T03:38:05;7.22;;;3.63;;
30048;SDS011;16879;50.852;15.602;2023-04-03T03:40:31;9.02;;;3.97;;
30048;SDS011;16879;50.852;15.602;2023-04-03T03:42:57;9.30;;;4.60;;
30048;SDS011;16879;50.852;15.602;2023-04-03T03:45:23;7.63;;;4.47;;
30048;SDS011;16879;50.852;15.602;2023-04-03T03:47:50;7.90;;;4.53;;
30048;SDS011;16879;50.852;15.602;2023-04-03T03:50:16;9.60;;;4.65;;
30048;SDS011;16879;50.852;15.602;2023-04-03T03:52:42;6.80;;;3.97;;
30048;SDS011;16879;50.852;15.602;2023-04-03T03:55:09;11.88;;;4.43;;
30048;SDS011;16879;50.852;15.602;2023-04-03T03:57:37;9.02;;;3.75;;
30048;SDS011;16879;50.852;15.602;2023-04-03T04:00:03;8.30;;;3.95;;
30048;SDS011;16879;50.852;15.602;2023-04-03T04:02:29;13.73;;;4.95;;
30048;SDS011;16879;50.852;15.602;2023-04-03T04:04:56;6.75;;;4.70;;
30048;SDS011;16879;50.852;15.602;2023-04-03T04:07:22;8.75;;;4.20;;
30048;SDS011;16879;50.852;15.602;2023-04-03T04:09:48;8.20;;;4.32;;
30048;SDS011;16879;50.852;15.602;2023-04-03T04:12:14;9.57;;;4.07;;
30048;SDS011;16879;50.852;15.602;2023-04-03T04:14:41;8.05;;;4.80;;
30048;SDS011;16879;50.852;15.602;2023-04-03T04:17:07;12.00;;;4.32;;
30048;SDS011;16879;50.852;15.602;2023-04-03T04:19:33;14.75;;;4.80;;
30048;SDS011;16879;50.852;15.602;2023-04-03T04:21:59;11.27;;;5.45;;
30048;SDS011;16879;50.852;15.602;2023-04-03T04:24:26;10.45;;;4.18;;
30048;SDS011;16879;50.852;15.602;2023-04-03T04:26:52;8.23;;;4.45;;
30048;SDS011;16879;50.852;15.602;2023-04-03T04:29:18;11.57;;;5.07;;
30048;SDS011;16879;50.852;15.602;2023-04-03T04:31:44;10.90;;;4.72;;
30048;SDS011;16879;50.852;15.602;2023-04-03T04:34:11;9.15;;;4.47;;
30048;SDS011;16879;50.852;15.602;2023-04-03T04:36:41;7.72;;;4.38;;
30048;SDS011;16879;50.852;15.602;2023-04-03T04:39:07;15.20;;;5.53;;
30048;SDS011;16879;50.852;15.602;2023-04-03T04:41:33;12.32;;;5.53;;
30048;SDS011;16879;50.852;15.602;2023-04-03T04:43:59;9.63;;;4.90;;
30048;SDS011;16879;50.852;15.602;2023-04-03T04:46:26;10.40;;;5.15;;
30048;SDS011;16879;50.852;15.602;2023-04-03T04:48:52;7.25;;;4.47;;
30048;SDS011;16879;50.852;15.602;2023-04-03T04:51:18;8.05;;;5.10;;
30048;SDS011;16879;50.852;15.602;2023-04-03T04:53:45;10.55;;;5.93;;
30048;SDS011;16879;50.852;15.602;2023-04-03T04:56:11;9.63;;;4.32;;
30048;SDS011;16879;50.852;15.602;2023-04-03T04:58:37;8.27;;;4.72;;
30048;SDS011;16879;50.852;15.602;2023-04-03T05:01:07;11.40;;;5.35;;
30048;SDS011;16879;50.852;15.602;2023-04-03T05:03:34;10.15;;;5.57;;
30048;SDS011;16879;50.852;15.602;2023-04-03T05:06:01;10.98;;;5.85;;
30048;SDS011;16879;50.852;15.602;2023-04-03T05:08:27;17.95;;;6.55;;
30048;SDS011;16879;50.852;15.602;2023-04-03T05:10:55;5.40;;;4.53;;
30048;SDS011;16879;50.852;15.602;2023-04-03T05:13:21;10.30;;;5.15;;
30048;SDS011;16879;50.852;15.602;2023-04-03T05:15:47;9.88;;;5.35;;
30048;SDS011;16879;50.852;15.602;2023-04-03T05:18:13;5.93;;;4.38;;
30048;SDS011;16879;50.852;15.602;2023-04-03T05:20:40;13.02;;;6.78;;
30048;SDS011;16879;50.852;15.602;2023-04-03T05:23:09;9.52;;;5.00;;
30048;SDS011;16879;50.852;15.602;2023-04-03T05:25:39;11.93;;;7.22;;
30048;SDS011;16879;50.852;15.602;2023-04-03T05:28:06;12.27;;;5.05;;
30048;SDS011;16879;50.852;15.602;2023-04-03T05:30:32;9.23;;;5.22;;
30048;SDS011;16879;50.852;15.602;2023-04-03T05:32:59;8.35;;;4.47;;
30048;SDS011;16879;50.852;15.602;2023-04-03T05:35:25;10.85;;;5.57;;
30048;SDS011;16879;50.852;15.602;2023-04-03T05:37:56;15.52;;;6.47;;
30048;SDS011;16879;50.852;15.602;2023-04-03T05:40:22;10.23;;;5.53;;
30048;SDS011;16879;50.852;15.602;2023-04-03T05:42:49;9.52;;;5.60;;
30048;SDS011;16879;50.852;15.602;2023-04-03T05:45:18;11.35;;;4.93;;
30048;SDS011;16879;50.852;15.602;2023-04-03T05:47:47;10.45;;;5.75;;
30048;SDS011;16879;50.852;15.602;2023-04-03T05:50:13;12.27;;;5.85;;
30048;SDS011;16879;50.852;15.602;2023-04-03T05:52:41;12.50;;;5.40;;
30048;SDS011;16879;50.852;15.602;2023-04-03T05:55:11;10.07;;;4.88;;
30048;SDS011;16879;50.852;15.602;2023-04-03T05:57:43;11.98;;;5.45;;
30048;SDS011;16879;50.852;15.602;2023-04-03T06:00:11;8.88;;;6.03;;
30048;SDS011;16879;50.852;15.602;2023-04-03T06:02:41;12.07;;;4.65;;
30048;SDS011;16879;50.852;15.602;2023-04-03T06:05:08;8.82;;;5.63;;
30048;SDS011;16879;50.852;15.602;2023-04-03T06:07:36;9.35;;;5.80;;
30048;SDS011;16879;50.852;15.602;2023-04-03T06:10:08;13.60;;;5.93;;
30048;SDS011;16879;50.852;15.602;2023-04-03T06:12:34;8.90;;;5.20;;
30048;SDS011;16879;50.852;15.602;2023-04-03T06:15:00;11.82;;;5.35;;
30048;SDS011;16879;50.852;15.602;2023-04-03T06:17:32;11.02;;;5.40;;
30048;SDS011;16879;50.852;15.602;2023-04-03T06:20:12;10.45;;;5.20;;
30048;SDS011;16879;50.852;15.602;2023-04-03T06:22:48;8.27;;;4.55;;
30048;SDS011;16879;50.852;15.602;2023-04-03T06:25:37;6.82;;;4.50;;
30048;SDS011;16879;50.852;15.602;2023-04-03T06:28:08;10.27;;;4.65;;
30048;SDS011;16879;50.852;15.602;2023-04-03T06:30:41;9.00;;;5.43;;
30048;SDS011;16879;50.852;15.602;2023-04-03T06:33:10;16.27;;;5.68;;
30048;SDS011;16879;50.852;15.602;2023-04-03T06:35:37;8.80;;;5.20;;
30048;SDS011;16879;50.852;15.602;2023-04-03T06:38:05;11.30;;;5.10;;
30048;SDS011;16879;50.852;15.602;2023-04-03T06:40:35;11.35;;;5.10;;
30048;SDS011;16879;50.852;15.602;2023-04-03T06:43:03;8.30;;;5.85;;
30048;SDS011;16879;50.852;15.602;2023-04-03T06:45:32;7.28;;;4.47;;
30048;SDS011;16879;50.852;15.602;2023-04-03T06:47:59;8.00;;;4.50;;
30048;SDS011;16879;50.852;15.602;2023-04-03T06:50:28;8.65;;;5.35;;
30048;SDS011;16879;50.852;15.602;2023-04-03T06:52:56;10.50;;;4.93;;
30048;SDS011;16879;50.852;15.602;2023-04-03T06:55:22;9.30;;;5.43;;
30048;SDS011;16879;50.852;15.602;2023-04-03T06:57:48;6.78;;;5.03;;
30048;SDS011;16879;50.852;15.602;2023-04-03T07:00:14;6.47;;;4.18;;
30048;SDS011;16879;50.852;15.602;2023-04-03T07:02:41;9.48;;;4.90;;
30048;SDS011;16879;50.852;15.602;2023-04-03T07:05:07;9.25;;;5.05;;
30048;SDS011;16879;50.852;15.602;2023-04-03T07:07:34;13.82;;;5.28;;
30048;SDS011;16879;50.852;15.602;2023-04-03T07:10:00;8.27;;;5.15;;
30048;SDS011;16879;50.852;15.602;2023-04-03T07:12:26;7.85;;;4.75;;
30048;SDS011;16879;50.852;15.602;2023-04-03T07:14:53;9.52;;;6.30;;
30048;SDS011;16879;50.852;15.602;2023-04-03T07:17:19;7.20;;;5.22;;
30048;SDS011;16879;50.852;15.602;2023-04-03T07:19:45;10.27;;;4.88;;
30048;SDS011;16879;50.852;15.602;2023-04-03T07:22:11;9.93;;;5.60;;
30048;SDS011;16879;50.852;15.602;2023-04-03T07:24:38;11.02;;;5.28;;
30048;SDS011;16879;50.852;15.602;2023-04-03T07:27:05;11.30;;;5.72;;
30048;SDS011;16879;50.852;15.602;2023-04-03T07:29:33;8.20;;;5.65;;
30048;SDS011;16879;50.852;15.602;2023-04-03T07:31:59;8.15;;;5.00;;
30048;SDS011;16879;50.852;15.602;2023-04-03T07:34:26;8.50;;;5.43;;
30048;SDS011;16879;50.852;15.602;2023-04-03T07:36:52;7.35;;;5.38;;
30048;SDS011;16879;50.852;15.602;2023-04-03T07:39:18;11.68;;;5.78;;
30048;SDS011;16879;50.852;15.602;2023-04-03T07:41:44;8.57;;;4.78;;
30048;SDS011;16879;50.852;15.602;2023-04-03T07:44:11;6.13;;;4.63;;
30048;SDS011;16879;50.852;15.602;2023-04-03T07:46:37;9.88;;;5.13;;
30048;SDS011;16879;50.852;15.602;2023-04-03T07:49:03;12.00;;;5.55;;
30048;SDS011;16879;50.852;15.602;2023-04-03T07:51:30;11.07;;;5.38;;
30048;SDS011;16879;50.852;15.602;2023-04-03T07:53:56;7.43;;;4.63;;
30048;SDS011;16879;50.852;15.602;2023-04-03T07:56:22;7.65;;;4.30;;
30048;SDS011;16879;50.852;15.602;2023-04-03T07:58:50;12.32;;;5.53;;
30048;SDS011;16879;50.852;15.602;2023-04-03T08:01:16;8.00;;;4.97;;
30048;SDS011;16879;50.852;15.602;2023-04-03T08:03:42;7.43;;;4.40;;
30048;SDS011;16879;50.852;15.602;2023-04-03T08:06:08;10.40;;;4.38;;
30048;SDS011;16879;50.852;15.602;2023-04-03T08:08:35;9.60;;;5.20;;
30048;SDS011;16879;50.852;15.602;2023-04-03T08:11:01;8.13;;;4.57;;
30048;SDS011;16879;50.852;15.602;2023-04-03T08:13:30;10.60;;;5.20;;
30048;SDS011;16879;50.852;15.602;2023-04-03T08:15:56;4.75;;;4.07;;
30048;SDS011;16879;50.852;15.602;2023-04-03T08:18:24;6.38;;;4.45;;
30048;SDS011;16879;50.852;15.602;2023-04-03T08:20:54;11.32;;;4.13;;
30048;SDS011;16879;50.852;15.602;2023-04-03T08:23:20;10.63;;;4.68;;
30048;SDS011;16879;50.852;15.602;2023-04-03T08:25:46;3.88;;;3.58;;
30048;SDS011;16879;50.852;15.602;2023-04-03T08:28:12;7.88;;;4.00;;
30048;SDS011;16879;50.852;15.602;2023-04-03T08:30:39;7.32;;;3.53;;
30048;SDS011;16879;50.852;15.602;2023-04-03T08:33:06;9.70;;;4.05;;
30048;SDS011;16879;50.852;15.602;2023-04-03T08:35:32;6.97;;;3.80;;
30048;SDS011;16879;50.852;15.602;2023-04-03T08:37:58;8.48;;;3.88;;
30048;SDS011;16879;50.852;15.602;2023-04-03T08:40:26;7.50;;;3.00;;
30048;SDS011;16879;50.852;15.602;2023-04-03T08:45:27;5.22;;;3.22;;
30048;SDS011;16879;50.852;15.602;2023-04-03T08:48:06;5.38;;;2.75;;
30048;SDS011;16879;50.852;15.602;2023-04-03T08:50:40;8.10;;;2.78;;
30048;SDS011;16879;50.852;15.602;2023-04-03T08:53:17;7.90;;;2.70;;
30048;SDS011;16879;50.852;15.602;2023-04-03T08:55:46;9.05;;;3.03;;
30048;SDS011;16879;50.852;15.602;2023-04-03T09:01:02;7.60;;;3.15;;
30048;SDS011;16879;50.852;15.602;2023-04-03T09:03:32;8.68;;;2.90;;
30048;SDS011;16879;50.852;15.602;2023-04-03T09:06:04;9.05;;;3.30;;
30048;SDS011;16879;50.852;15.602;2023-04-03T09:09:14;3.30;;;2.35;;
30048;SDS011;16879;50.852;15.602;2023-04-03T09:11:45;11.55;;;2.88;;
30048;SDS011;16879;50.852;15.602;2023-04-03T09:19:54;6.72;;;2.25;;
30048;SDS011;16879;50.852;15.602;2023-04-03T09:22:26;4.10;;;1.88;;
30048;SDS011;16879;50.852;15.602;2023-04-03T09:24:56;4.93;;;2.13;;
30048;SDS011;16879;50.852;15.602;2023-04-03T09:27:23;4.43;;;1.98;;
30048;SDS011;16879;50.852;15.602;2023-04-03T09:29:50;5.10;;;1.73;;
30048;SDS011;16879;50.852;15.602;2023-04-03T09:34:51;5.65;;;2.03;;
30048;SDS011;16879;50.852;15.602;2023-04-03T09:42:54;2.65;;;1.33;;
30048;SDS011;16879;50.852;15.602;2023-04-03T09:45:26;4.07;;;2.05;;
30048;SDS011;16879;50.852;15.602;2023-04-03T09:51:00;4.93;;;1.73;;
30048;SDS011;16879;50.852;15.602;2023-04-03T09:58:42;3.00;;;1.90;;
30048;SDS011;16879;50.852;15.602;2023-04-03T10:01:27;2.30;;;1.77;;
30048;SDS011;16879;50.852;15.602;2023-04-03T10:06:45;4.25;;;1.63;;
30048;SDS011;16879;50.852;15.602;2023-04-03T10:11:57;3.33;;;1.88;;
30048;SDS011;16879;50.852;15.602;2023-04-03T10:14:27;4.72;;;1.50;;
30048;SDS011;16879;50.852;15.602;2023-04-03T10:19:41;2.22;;;1.65;;
30048;SDS011;16879;50.852;15.602;2023-04-03T10:29:58;5.00;;;1.90;;
30048;SDS011;16879;50.852;15.602;2023-04-03T10:35:25;3.28;;;1.77;;
30048;SDS011;16879;50.852;15.602;2023-04-03T10:38:20;3.38;;;1.90;;
30048;SDS011;16879;50.852;15.602;2023-04-03T10:41:04;4.90;;;1.90;;
30048;SDS011;16879;50.852;15.602;2023-04-03T10:56:56;3.20;;;1.90;;
30048;SDS011;16879;50.852;15.602;2023-04-03T10:59:25;3.20;;;1.85;;
30048;SDS011;16879;50.852;15.602;2023-04-03T11:01:54;4.15;;;1.90;;
30048;SDS011;16879;50.852;15.602;2023-04-03T11:04:37;6.25;;;2.50;;
30048;SDS011;16879;50.852;15.602;2023-04-03T11:07:16;2.72;;;1.70;;
30048;SDS011;16879;50.852;15.602;2023-04-03T11:09:44;6.07;;;1.88;;
30048;SDS011;16879;50.852;15.602;2023-04-03T11:12:23;9.40;;;1.83;;
30048;SDS011;16879;50.852;15.602;2023-04-03T11:14:51;4.85;;;1.40;;
30048;SDS011;16879;50.852;15.602;2023-04-03T11:19:57;2.00;;;1.40;;
30048;SDS011;16879;50.852;15.602;2023-04-03T11:25:37;6.47;;;1.75;;
30048;SDS011;16879;50.852;15.602;2023-04-03T11:27:42;4.22;;;2.72;;
30048;SDS011;16879;50.852;15.602;2023-04-03T11:30:21;5.00;;;1.85;;
30048;SDS011;16879;50.852;15.602;2023-04-03T11:35:45;2.70;;;1.42;;
30048;SDS011;16879;50.852;15.602;2023-04-03T11:38:24;6.13;;;1.95;;
30048;SDS011;16879;50.852;15.602;2023-04-03T11:40:52;2.63;;;1.50;;
30048;SDS011;16879;50.852;15.602;2023-04-03T11:45:54;5.05;;;1.75;;
30048;SDS011;16879;50.852;15.602;2023-04-03T11:50:59;3.83;;;2.28;;
30048;SDS011;16879;50.852;15.602;2023-04-03T11:53:30;3.97;;;2.38;;
30048;SDS011;16879;50.852;15.602;2023-04-03T11:55:58;6.07;;;1.92;;
30048;SDS011;16879;50.852;15.602;2023-04-03T11:58:29;2.97;;;1.75;;
30048;SDS011;16879;50.852;15.602;2023-04-03T12:16:02;5.20;;;2.10;;
30048;SDS011;16879;50.852;15.602;2023-04-03T12:18:39;5.25;;;1.83;;
30048;SDS011;16879;50.852;15.602;2023-04-03T12:21:07;3.83;;;1.85;;
30048;SDS011;16879;50.852;15.602;2023-04-03T12:23:34;6.38;;;2.92;;
30048;SDS011;16879;50.852;15.602;2023-04-03T12:26:20;3.38;;;1.95;;
30048;SDS011;16879;50.852;15.602;2023-04-03T12:28:50;5.82;;;2.67;;
30048;SDS011;16879;50.852;15.602;2023-04-03T12:31:18;5.35;;;3.55;;
30048;SDS011;16879;50.852;15.602;2023-04-03T12:36:15;4.68;;;2.67;;
30048;SDS011;16879;50.852;15.602;2023-04-03T12:39:34;3.70;;;1.90;;
30048;SDS011;16879;50.852;15.602;2023-04-03T12:41:44;3.50;;;1.83;;
30048;SDS011;16879;50.852;15.602;2023-04-03T12:46:44;5.70;;;1.98;;
30048;SDS011;16879;50.852;15.602;2023-04-03T12:49:18;3.80;;;2.13;;
30048;SDS011;16879;50.852;15.602;2023-04-03T12:51:56;8.38;;;2.40;;
30048;SDS011;16879;50.852;15.602;2023-04-03T12:54:36;5.38;;;2.00;;
30048;SDS011;16879;50.852;15.602;2023-04-03T12:57:12;7.15;;;2.13;;
30048;SDS011;16879;50.852;15.602;2023-04-03T12:59:43;4.15;;;2.35;;
30048;SDS011;16879;50.852;15.602;2023-04-03T13:04:46;3.83;;;2.17;;
30048;SDS011;16879;50.852;15.602;2023-04-03T13:07:19;5.20;;;2.10;;
30048;SDS011;16879;50.852;15.602;2023-04-03T13:12:49;5.15;;;1.98;;
30048;SDS011;16879;50.852;15.602;2023-04-03T13:15:18;3.85;;;2.05;;
30048;SDS011;16879;50.852;15.602;2023-04-03T13:17:45;3.97;;;2.03;;
30048;SDS011;16879;50.852;15.602;2023-04-03T13:20:34;4.55;;;2.00;;
30048;SDS011;16879;50.852;15.602;2023-04-03T13:23:07;3.35;;;2.13;;
30048;SDS011;16879;50.852;15.602;2023-04-03T13:25:39;2.70;;;1.73;;
30048;SDS011;16879;50.852;15.602;2023-04-03T13:28:06;6.00;;;2.95;;
30048;SDS011;16879;50.852;15.602;2023-04-03T13:30:34;4.82;;;3.03;;
30048;SDS011;16879;50.852;15.602;2023-04-03T13:33:02;5.18;;;2.85;;
30048;SDS011;16879;50.852;15.602;2023-04-03T13:35:34;9.95;;;3.00;;
30048;SDS011;16879;50.852;15.602;2023-04-03T13:38:03;7.57;;;2.55;;
30048;SDS011;16879;50.852;15.602;2023-04-03T13:43:19;5.50;;;2.50;;
30048;SDS011;16879;50.852;15.602;2023-04-03T13:46:05;4.63;;;2.33;;
30048;SDS011;16879;50.852;15.602;2023-04-03T13:48:35;5.18;;;2.70;;
30048;SDS011;16879;50.852;15.602;2023-04-03T13:51:16;11.30;;;2.85;;
30048;SDS011;16879;50.852;15.602;2023-04-03T13:53:56;3.83;;;2.15;;
30048;SDS011;16879;50.852;15.602;2023-04-03T13:56:25;3.30;;;2.47;;
30048;SDS011;16879;50.852;15.602;2023-04-03T14:01:37;5.63;;;2.78;;
30048;SDS011;16879;50.852;15.602;2023-04-03T14:06:36;7.20;;;3.63;;
30048;SDS011;16879;50.852;15.602;2023-04-03T14:09:02;5.93;;;2.88;;
30048;SDS011;16879;50.852;15.602;2023-04-03T14:11:29;6.82;;;3.50;;
30048;SDS011;16879;50.852;15.602;2023-04-03T14:13:57;5.15;;;3.13;;
30048;SDS011;16879;50.852;15.602;2023-04-03T14:16:28;5.47;;;2.88;;
30048;SDS011;16879;50.852;15.602;2023-04-03T14:18:55;5.93;;;2.78;;
30048;SDS011;16879;50.852;15.602;2023-04-03T14:21:25;8.73;;;3.40;;
30048;SDS011;16879;50.852;15.602;2023-04-03T14:23:51;6.97;;;3.03;;
30048;SDS011;16879;50.852;15.602;2023-04-03T14:26:18;4.13;;;2.63;;
30048;SDS011;16879;50.852;15.602;2023-04-03T14:28:46;4.82;;;2.90;;
30048;SDS011;16879;50.852;15.602;2023-04-03T14:31:14;4.72;;;2.53;;
30048;SDS011;16879;50.852;15.602;2023-04-03T14:33:40;4.47;;;2.95;;
30048;SDS011;16879;50.852;15.602;2023-04-03T14:36:11;5.85;;;3.15;;
30048;SDS011;16879;50.852;15.602;2023-04-03T14:38:37;3.08;;;2.45;;
30048;SDS011;16879;50.852;15.602;2023-04-03T14:41:03;4.10;;;2.42;;
30048;SDS011;16879;50.852;15.602;2023-04-03T14:43:30;5.22;;;2.83;;
30048;SDS011;16879;50.852;15.602;2023-04-03T14:45:56;7.57;;;3.00;;
30048;SDS011;16879;50.852;15.602;2023-04-03T14:48:23;7.13;;;3.38;;
30048;SDS011;16879;50.852;15.602;2023-04-03T14:50:50;6.97;;;3.17;;
30048;SDS011;16879;50.852;15.602;2023-04-03T14:53:17;9.38;;;3.45;;
30048;SDS011;16879;50.852;15.602;2023-04-03T14:55:47;7.50;;;3.58;;
30048;SDS011;16879;50.852;15.602;2023-04-03T14:58:14;6.63;;;2.40;;
30048;SDS011;16879;50.852;15.602;2023-04-03T15:00:41;5.00;;;2.53;;
30048;SDS011;16879;50.852;15.602;2023-04-03T15:03:14;6.85;;;3.05;;
30048;SDS011;16879;50.852;15.602;2023-04-03T15:05:41;3.83;;;2.72;;
30048;SDS011;16879;50.852;15.602;2023-04-03T15:08:13;5.40;;;3.00;;
30048;SDS011;16879;50.852;15.602;2023-04-03T15:10:43;4.57;;;2.22;;
30048;SDS011;16879;50.852;15.602;2023-04-03T15:13:10;4.85;;;2.50;;
30048;SDS011;16879;50.852;15.602;2023-04-03T15:15:37;5.18;;;2.45;;
30048;SDS011;16879;50.852;15.602;2023-04-03T15:18:03;5.57;;;2.35;;
30048;SDS011;16879;50.852;15.602;2023-04-03T15:20:30;6.07;;;2.80;;
30048;SDS011;16879;50.852;15.602;2023-04-03T15:22:58;3.45;;;2.63;;
30048;SDS011;16879;50.852;15.602;2023-04-03T15:25:28;2.92;;;2.40;;
30048;SDS011;16879;50.852;15.602;2023-04-03T15:27:55;6.38;;;2.42;;
30048;SDS011;16879;50.852;15.602;2023-04-03T15:30:21;5.65;;;2.63;;
30048;SDS011;16879;50.852;15.602;2023-04-03T15:32:48;7.30;;;3.75;;
30048;SDS011;16879;50.852;15.602;2023-04-03T15:35:14;3.30;;;2.28;;
30048;SDS011;16879;50.852;15.602;2023-04-03T15:37:40;6.03;;;2.58;;
30048;SDS011;16879;50.852;15.602;2023-04-03T15:40:07;3.90;;;2.50;;
30048;SDS011;16879;50.852;15.602;2023-04-03T15:42:34;5.78;;;2.80;;
30048;SDS011;16879;50.852;15.602;2023-04-03T15:45:00;5.88;;;2.70;;
30048;SDS011;16879;50.852;15.602;2023-04-03T15:47:26;3.55;;;2.50;;
30048;SDS011;16879;50.852;15.602;2023-04-03T15:49:53;7.28;;;3.63;;
30048;SDS011;16879;50.852;15.602;2023-04-03T15:52:20;4.57;;;2.97;;
30048;SDS011;16879;50.852;15.602;2023-04-03T15:54:46;6.10;;;3.65;;
30048;SDS011;16879;50.852;15.602;2023-04-03T15:57:12;6.88;;;4.18;;
30048;SDS011;16879;50.852;15.602;2023-04-03T15:59:37;5.90;;;3.20;;
30048;SDS011;16879;50.852;15.602;2023-04-03T16:02:03;7.25;;;4.32;;
30048;SDS011;16879;50.852;15.602;2023-04-03T16:04:32;5.80;;;2.90;;
30048;SDS011;16879;50.852;15.602;2023-04-03T16:07:00;6.28;;;3.45;;
30048;SDS011;16879;50.852;15.602;2023-04-03T16:09:27;5.88;;;2.95;;
30048;SDS011;16879;50.852;15.602;2023-04-03T16:11:53;5.00;;;3.50;;
30048;SDS011;16879;50.852;15.602;2023-04-03T16:14:19;5.85;;;3.33;;
30048;SDS011;16879;50.852;15.602;2023-04-03T16:16:46;8.57;;;3.50;;
30048;SDS011;16879;50.852;15.602;2023-04-03T16:19:11;8.90;;;3.25;;
30048;SDS011;16879;50.852;15.602;2023-04-03T16:21:38;6.22;;;3.50;;
30048;SDS011;16879;50.852;15.602;2023-04-03T16:24:04;5.07;;;3.08;;
30048;SDS011;16879;50.852;15.602;2023-04-03T16:26:31;7.10;;;3.60;;
30048;SDS011;16879;50.852;15.602;2023-04-03T16:28:57;8.55;;;3.08;;
30048;SDS011;16879;50.852;15.602;2023-04-03T16:31:23;6.80;;;3.15;;
30048;SDS011;16879;50.852;15.602;2023-04-03T16:33:51;7.60;;;4.13;;
30048;SDS011;16879;50.852;15.602;2023-04-03T16:36:17;8.98;;;3.17;;